SHT7U EGPF-EGLL
Flight info
| Callsign | SHT7U |
|---|---|
| Flight time | 1h 0m |
| Altitude | 33000 |
| Route | NORBO T256 RIPNO/N0441F330 DCT AKOMU DCT VAMEB DCT NUGRA |
| Aircraft | A319/M-SDE3FGIJ1KRWXY/LB1 |
Departure
| Time | 2026-05-07 15:37 |
|---|---|
| Airport | Glasgow Airport (EGPF) |
Arrival
| Time | 2026-05-07 16:38 |
|---|---|
| Airport | London Heathrow Airport (EGLL) |
| Time | Latitude | Longitude | Altitude | Speed | Heading |
|---|---|---|---|---|---|
| 2026-05-07 15:15 | 55.86723 | -4.43365 | 29 ft | 0 kts | 237° |
| 2026-05-07 15:30 | 55.86728 | -4.43352 | 29 ft | 4 kts | 240° |
| 2026-05-07 15:30 | 55.86738 | -4.43309 | 29 ft | 4 kts | 267° |
| 2026-05-07 15:30 | 55.86733 | -4.43272 | 29 ft | 4 kts | 333° |
| 2026-05-07 15:30 | 55.86724 | -4.43266 | 29 ft | 1 kts | 344° |
| 2026-05-07 15:33 | 55.86735 | -4.43271 | 29 ft | 5 kts | 344° |
| 2026-05-07 15:33 | 55.86785 | -4.43292 | 29 ft | 9 kts | 0° |
| 2026-05-07 15:33 | 55.86821 | -4.43189 | 29 ft | 12 kts | 78° |
| 2026-05-07 15:33 | 55.86848 | -4.43036 | 29 ft | 14 kts | 70° |
| 2026-05-07 15:34 | 55.86925 | -4.42922 | 29 ft | 16 kts | 29° |
| 2026-05-07 15:34 | 55.87034 | -4.42835 | 29 ft | 18 kts | 23° |
| 2026-05-07 15:34 | 55.87157 | -4.42746 | 29 ft | 20 kts | 22° |
| 2026-05-07 15:34 | 55.87291 | -4.42661 | 29 ft | 21 kts | 19° |
| 2026-05-07 15:35 | 55.87422 | -4.42529 | 29 ft | 23 kts | 43° |
| 2026-05-07 15:35 | 55.87533 | -4.42316 | 29 ft | 24 kts | 47° |
| 2026-05-07 15:35 | 55.87655 | -4.42090 | 29 ft | 26 kts | 46° |
| 2026-05-07 15:35 | 55.87768 | -4.41893 | 29 ft | 15 kts | 34° |
| 2026-05-07 15:36 | 55.87874 | -4.41865 | 29 ft | 16 kts | 344° |
| 2026-05-07 15:36 | 55.87921 | -4.41975 | 29 ft | 10 kts | 238° |
| 2026-05-07 15:36 | 55.87905 | -4.42002 | 29 ft | 0 kts | 222° |
| 2026-05-07 15:37 | 55.87825 | -4.42145 | 29 ft | 45 kts | 226° |
| 2026-05-07 15:37 | 55.87459 | -4.42824 | 29 ft | 105 kts | 227° |
| 2026-05-07 15:37 | 55.86855 | -4.43974 | 273 ft | 132 kts | 224° |
| 2026-05-07 15:37 | 55.86267 | -4.45133 | 1019 ft | 124 kts | 224° |
| 2026-05-07 15:38 | 55.85647 | -4.46198 | 1656 ft | 125 kts | 220° |
| 2026-05-07 15:38 | 55.84949 | -4.47227 | 2186 ft | 136 kts | 217° |
| 2026-05-07 15:38 | 55.84439 | -4.47928 | 2514 ft | 147 kts | 220° |
| 2026-05-07 15:38 | 55.83663 | -4.49294 | 2931 ft | 169 kts | 225° |
| 2026-05-07 15:39 | 55.82797 | -4.50909 | 3353 ft | 192 kts | 225° |
| 2026-05-07 15:39 | 55.81826 | -4.52709 | 3893 ft | 211 kts | 225° |
| 2026-05-07 15:39 | 55.80781 | -4.54633 | 4675 ft | 226 kts | 225° |
| 2026-05-07 15:39 | 55.79645 | -4.56705 | 5499 ft | 239 kts | 225° |
| 2026-05-07 15:40 | 55.78466 | -4.58836 | 6544 ft | 245 kts | 225° |
| 2026-05-07 15:40 | 55.77253 | -4.61002 | 7565 ft | 249 kts | 224° |
| 2026-05-07 15:40 | 55.76016 | -4.63198 | 8599 ft | 254 kts | 224° |
| 2026-05-07 15:40 | 55.74756 | -4.65432 | 9632 ft | 258 kts | 224° |
| 2026-05-07 15:41 | 55.73461 | -4.67721 | 10332 ft | 273 kts | 224° |
| 2026-05-07 15:41 | 55.72052 | -4.70195 | 10695 ft | 296 kts | 224° |
| 2026-05-07 15:41 | 55.70540 | -4.72790 | 11330 ft | 307 kts | 223° |
| 2026-05-07 15:41 | 55.68786 | -4.74991 | 12098 ft | 314 kts | 205° |
| 2026-05-07 15:42 | 55.66627 | -4.75799 | 12918 ft | 323 kts | 186° |
| 2026-05-07 15:42 | 55.64371 | -4.75963 | 13769 ft | 326 kts | 185° |
| 2026-05-07 15:42 | 55.62081 | -4.75949 | 14502 ft | 333 kts | 177° |
| 2026-05-07 15:42 | 55.59796 | -4.75075 | 15234 ft | 341 kts | 165° |
| 2026-05-07 15:43 | 55.57634 | -4.73251 | 15976 ft | 350 kts | 151° |
| 2026-05-07 15:43 | 55.55684 | -4.70611 | 16726 ft | 356 kts | 144° |
| 2026-05-07 15:43 | 55.53788 | -4.67869 | 17475 ft | 358 kts | 144° |
| 2026-05-07 15:43 | 55.51847 | -4.65082 | 18212 ft | 362 kts | 145° |
| 2026-05-07 15:44 | 55.49884 | -4.62276 | 18861 ft | 365 kts | 145° |
| 2026-05-07 15:44 | 55.47901 | -4.59455 | 19529 ft | 368 kts | 145° |
| 2026-05-07 15:44 | 55.45901 | -4.56617 | 20199 ft | 371 kts | 145° |
| 2026-05-07 15:44 | 55.43884 | -4.53756 | 20844 ft | 374 kts | 145° |
| 2026-05-07 15:45 | 55.41845 | -4.50868 | 21474 ft | 377 kts | 145° |
| 2026-05-07 15:45 | 55.39798 | -4.47959 | 22087 ft | 380 kts | 145° |
| 2026-05-07 15:45 | 55.37731 | -4.45024 | 22694 ft | 383 kts | 145° |
| 2026-05-07 15:45 | 55.35646 | -4.42067 | 23262 ft | 387 kts | 145° |
| 2026-05-07 15:46 | 55.31421 | -4.36096 | 24295 ft | 393 kts | 145° |
| 2026-05-07 15:46 | 55.29283 | -4.33082 | 24796 ft | 395 kts | 145° |
| 2026-05-07 15:46 | 55.27136 | -4.30052 | 25302 ft | 397 kts | 145° |
| 2026-05-07 15:47 | 55.24981 | -4.27013 | 25801 ft | 399 kts | 145° |
| 2026-05-07 15:47 | 55.22808 | -4.23960 | 26303 ft | 401 kts | 145° |
| 2026-05-07 15:47 | 55.20621 | -4.20898 | 26799 ft | 404 kts | 145° |
| 2026-05-07 15:47 | 55.18422 | -4.17817 | 27288 ft | 406 kts | 144° |
| 2026-05-07 15:48 | 55.16393 | -4.14407 | 27779 ft | 411 kts | 137° |
| 2026-05-07 15:48 | 55.14418 | -4.10761 | 28269 ft | 413 kts | 137° |
| 2026-05-07 15:48 | 55.12436 | -4.07107 | 28742 ft | 416 kts | 137° |
| 2026-05-07 15:48 | 55.10439 | -4.03427 | 29202 ft | 418 kts | 137° |
| 2026-05-07 15:49 | 55.08434 | -3.99740 | 29662 ft | 420 kts | 137° |
| 2026-05-07 15:49 | 55.06412 | -3.96036 | 30089 ft | 422 kts | 137° |
| 2026-05-07 15:49 | 55.04380 | -3.92316 | 30455 ft | 425 kts | 137° |
| 2026-05-07 15:49 | 55.02338 | -3.88578 | 30819 ft | 426 kts | 137° |
| 2026-05-07 15:50 | 55.00290 | -3.84828 | 31189 ft | 428 kts | 137° |
| 2026-05-07 15:50 | 54.98229 | -3.81058 | 31527 ft | 430 kts | 137° |
| 2026-05-07 15:50 | 54.96168 | -3.77292 | 31961 ft | 429 kts | 136° |
| 2026-05-07 15:50 | 54.93992 | -3.73780 | 32441 ft | 425 kts | 144° |
| 2026-05-07 15:51 | 54.91568 | -3.70892 | 32880 ft | 421 kts | 150° |
| 2026-05-07 15:51 | 54.89087 | -3.68245 | 32984 ft | 413 kts | 150° |
| 2026-05-07 15:51 | 54.86670 | -3.65674 | 32992 ft | 403 kts | 150° |
| 2026-05-07 15:52 | 54.81933 | -3.60653 | 32994 ft | 397 kts | 150° |
| 2026-05-07 15:52 | 54.77252 | -3.55696 | 32993 ft | 396 kts | 150° |
| 2026-05-07 15:53 | 54.72548 | -3.50719 | 32995 ft | 396 kts | 150° |
| 2026-05-07 15:53 | 54.67840 | -3.45754 | 32991 ft | 396 kts | 150° |
| 2026-05-07 15:54 | 54.63131 | -3.40797 | 32990 ft | 396 kts | 150° |
| 2026-05-07 15:54 | 54.58420 | -3.35867 | 32993 ft | 396 kts | 150° |
| 2026-05-07 15:55 | 54.53708 | -3.30951 | 32986 ft | 395 kts | 150° |
| 2026-05-07 15:55 | 54.49009 | -3.26053 | 32989 ft | 395 kts | 150° |
| 2026-05-07 15:56 | 54.44302 | -3.21150 | 32976 ft | 395 kts | 150° |
| 2026-05-07 15:56 | 54.39595 | -3.16273 | 32975 ft | 396 kts | 150° |
| 2026-05-07 15:57 | 54.34901 | -3.11425 | 32980 ft | 397 kts | 150° |
| 2026-05-07 15:57 | 54.30172 | -3.06537 | 32986 ft | 397 kts | 150° |
| 2026-05-07 15:58 | 54.25428 | -3.01669 | 32990 ft | 397 kts | 150° |
| 2026-05-07 15:58 | 54.20686 | -2.96807 | 32994 ft | 398 kts | 150° |
| 2026-05-07 15:59 | 54.15853 | -2.92219 | 33000 ft | 397 kts | 157° |
| 2026-05-07 15:59 | 54.10761 | -2.88525 | 33004 ft | 398 kts | 157° |
| 2026-05-07 16:00 | 54.05675 | -2.84823 | 32999 ft | 398 kts | 157° |
| 2026-05-07 16:00 | 54.00580 | -2.81130 | 33009 ft | 398 kts | 159° |
| 2026-05-07 16:01 | 53.95312 | -2.78257 | 33013 ft | 398 kts | 162° |
| 2026-05-07 16:01 | 53.90019 | -2.75459 | 33012 ft | 399 kts | 162° |
| 2026-05-07 16:02 | 53.84715 | -2.72653 | 33010 ft | 399 kts | 162° |
| 2026-05-07 16:02 | 53.79450 | -2.69872 | 33015 ft | 399 kts | 162° |
| 2026-05-07 16:03 | 53.74139 | -2.67082 | 33015 ft | 399 kts | 162° |
| 2026-05-07 16:03 | 53.68829 | -2.64310 | 33015 ft | 399 kts | 162° |
| 2026-05-07 16:04 | 53.63513 | -2.61537 | 33011 ft | 400 kts | 162° |
| 2026-05-07 16:04 | 53.58191 | -2.58762 | 32997 ft | 401 kts | 162° |
| 2026-05-07 16:05 | 53.52864 | -2.55983 | 33006 ft | 401 kts | 162° |
| 2026-05-07 16:05 | 53.47532 | -2.53212 | 33005 ft | 401 kts | 162° |
| 2026-05-07 16:06 | 53.42232 | -2.50463 | 33009 ft | 401 kts | 162° |
| 2026-05-07 16:06 | 53.36894 | -2.47714 | 33011 ft | 401 kts | 162° |
| 2026-05-07 16:07 | 53.31559 | -2.44965 | 33020 ft | 401 kts | 162° |
| 2026-05-07 16:07 | 53.26220 | -2.42232 | 33022 ft | 401 kts | 162° |
| 2026-05-07 16:08 | 53.20880 | -2.39505 | 33024 ft | 402 kts | 162° |
| 2026-05-07 16:08 | 53.15530 | -2.36772 | 33017 ft | 402 kts | 162° |
| 2026-05-07 16:09 | 53.10169 | -2.34043 | 33019 ft | 403 kts | 162° |
| 2026-05-07 16:09 | 53.04803 | -2.31316 | 33022 ft | 403 kts | 161° |
| 2026-05-07 16:10 | 52.99802 | -2.27072 | 33036 ft | 411 kts | 148° |
| 2026-05-07 16:10 | 52.94871 | -2.21871 | 33043 ft | 426 kts | 148° |
| 2026-05-07 16:11 | 52.89844 | -2.16595 | 33038 ft | 429 kts | 148° |
| 2026-05-07 16:11 | 52.84823 | -2.11366 | 33040 ft | 429 kts | 148° |
| 2026-05-07 16:12 | 52.79767 | -2.06104 | 32841 ft | 430 kts | 148° |
| 2026-05-07 16:12 | 52.77212 | -2.03449 | 31873 ft | 436 kts | 148° |
| 2026-05-07 16:12 | 52.74659 | -2.00800 | 31351 ft | 431 kts | 148° |
| 2026-05-07 16:12 | 52.72132 | -1.98184 | 30801 ft | 426 kts | 148° |
| 2026-05-07 16:13 | 52.69632 | -1.95598 | 30252 ft | 422 kts | 148° |
| 2026-05-07 16:13 | 52.67155 | -1.93038 | 29651 ft | 418 kts | 148° |
| 2026-05-07 16:13 | 52.64711 | -1.90518 | 29116 ft | 412 kts | 149° |
| 2026-05-07 16:13 | 52.62297 | -1.88035 | 28582 ft | 407 kts | 149° |
| 2026-05-07 16:14 | 52.59905 | -1.85574 | 28044 ft | 403 kts | 149° |
| 2026-05-07 16:14 | 52.57535 | -1.83136 | 27536 ft | 401 kts | 149° |
| 2026-05-07 16:14 | 52.55178 | -1.80715 | 27001 ft | 398 kts | 149° |
| 2026-05-07 16:14 | 52.52834 | -1.78309 | 26494 ft | 396 kts | 149° |
| 2026-05-07 16:15 | 52.50506 | -1.75918 | 25989 ft | 394 kts | 149° |
| 2026-05-07 16:15 | 52.48181 | -1.73534 | 25511 ft | 394 kts | 150° |
| 2026-05-07 16:15 | 52.45863 | -1.71159 | 25032 ft | 392 kts | 150° |
| 2026-05-07 16:15 | 52.43556 | -1.68798 | 24558 ft | 390 kts | 150° |
| 2026-05-07 16:16 | 52.41254 | -1.66453 | 24100 ft | 388 kts | 150° |
| 2026-05-07 16:16 | 52.38966 | -1.64128 | 23651 ft | 386 kts | 150° |
| 2026-05-07 16:16 | 52.36688 | -1.61819 | 23149 ft | 384 kts | 150° |
| 2026-05-07 16:16 | 52.34424 | -1.59528 | 22714 ft | 382 kts | 150° |
| 2026-05-07 16:17 | 52.32170 | -1.57246 | 22262 ft | 379 kts | 150° |
| 2026-05-07 16:17 | 52.29933 | -1.54983 | 21853 ft | 377 kts | 150° |
| 2026-05-07 16:17 | 52.27712 | -1.52739 | 21386 ft | 374 kts | 150° |
| 2026-05-07 16:17 | 52.25508 | -1.50515 | 20920 ft | 372 kts | 150° |
| 2026-05-07 16:18 | 52.23309 | -1.48293 | 20434 ft | 370 kts | 150° |
| 2026-05-07 16:18 | 52.21183 | -1.45951 | 19955 ft | 369 kts | 143° |
| 2026-05-07 16:18 | 52.19247 | -1.43226 | 19607 ft | 367 kts | 141° |
| 2026-05-07 16:18 | 52.17345 | -1.40554 | 19242 ft | 365 kts | 141° |
| 2026-05-07 16:19 | 52.15422 | -1.37874 | 18873 ft | 362 kts | 141° |
| 2026-05-07 16:19 | 52.13511 | -1.35212 | 18503 ft | 360 kts | 141° |
| 2026-05-07 16:19 | 52.11610 | -1.32566 | 18115 ft | 366 kts | 141° |
| 2026-05-07 16:19 | 52.09628 | -1.29821 | 17713 ft | 379 kts | 141° |
| 2026-05-07 16:20 | 52.07612 | -1.27036 | 17331 ft | 380 kts | 141° |
| 2026-05-07 16:20 | 52.05605 | -1.24257 | 16941 ft | 378 kts | 141° |
| 2026-05-07 16:20 | 52.03617 | -1.21500 | 16552 ft | 375 kts | 141° |
| 2026-05-07 16:20 | 52.01639 | -1.18758 | 16139 ft | 372 kts | 141° |
| 2026-05-07 16:21 | 51.99674 | -1.16039 | 15763 ft | 372 kts | 141° |
| 2026-05-07 16:21 | 51.97654 | -1.13259 | 15374 ft | 385 kts | 141° |
| 2026-05-07 16:21 | 51.95610 | -1.10449 | 14985 ft | 385 kts | 141° |
| 2026-05-07 16:21 | 51.93543 | -1.07606 | 14087 ft | 397 kts | 141° |
| 2026-05-07 16:22 | 51.91430 | -1.04693 | 13008 ft | 396 kts | 141° |
| 2026-05-07 16:22 | 51.89363 | -1.01846 | 12695 ft | 397 kts | 141° |
| 2026-05-07 16:22 | 51.87258 | -0.98948 | 12573 ft | 397 kts | 141° |
| 2026-05-07 16:22 | 51.85293 | -0.95823 | 12388 ft | 398 kts | 127° |
| 2026-05-07 16:23 | 51.83963 | -0.91938 | 11937 ft | 386 kts | 117° |
| 2026-05-07 16:23 | 51.82842 | -0.88191 | 11652 ft | 355 kts | 117° |
| 2026-05-07 16:23 | 51.81802 | -0.84747 | 11495 ft | 326 kts | 118° |
| 2026-05-07 16:23 | 51.80838 | -0.81594 | 11361 ft | 301 kts | 118° |
| 2026-05-07 16:24 | 51.79927 | -0.78632 | 10968 ft | 290 kts | 118° |
| 2026-05-07 16:24 | 51.79034 | -0.75740 | 10415 ft | 286 kts | 118° |
| 2026-05-07 16:24 | 51.78151 | -0.72884 | 9851 ft | 283 kts | 118° |
| 2026-05-07 16:24 | 51.77275 | -0.70047 | 9261 ft | 281 kts | 118° |
| 2026-05-07 16:25 | 51.76409 | -0.67232 | 8716 ft | 277 kts | 118° |
| 2026-05-07 16:25 | 51.75581 | -0.64547 | 8579 ft | 258 kts | 118° |
| 2026-05-07 16:25 | 51.74803 | -0.62026 | 8329 ft | 247 kts | 118° |
| 2026-05-07 16:25 | 51.74041 | -0.59565 | 7912 ft | 244 kts | 118° |
| 2026-05-07 16:26 | 51.73538 | -0.57946 | 7633 ft | 243 kts | 118° |
| 2026-05-07 16:26 | 51.72777 | -0.55528 | 7183 ft | 241 kts | 121° |
| 2026-05-07 16:26 | 51.71731 | -0.53471 | 7068 ft | 238 kts | 137° |
| 2026-05-07 16:26 | 51.70450 | -0.51776 | 7069 ft | 238 kts | 154° |
| 2026-05-07 16:27 | 51.68324 | -0.51316 | 7059 ft | 237 kts | 190° |
| 2026-05-07 16:27 | 51.67252 | -0.51777 | 7055 ft | 236 kts | 199° |
| 2026-05-07 16:27 | 51.65731 | -0.52782 | 7057 ft | 237 kts | 208° |
| 2026-05-07 16:27 | 51.64333 | -0.54191 | 7054 ft | 237 kts | 215° |
| 2026-05-07 16:28 | 51.63094 | -0.55931 | 7057 ft | 237 kts | 225° |
| 2026-05-07 16:28 | 51.61994 | -0.57908 | 7059 ft | 237 kts | 230° |
| 2026-05-07 16:28 | 51.61059 | -0.60090 | 7036 ft | 237 kts | 242° |
| 2026-05-07 16:28 | 51.60364 | -0.62489 | 6748 ft | 236 kts | 246° |
| 2026-05-07 16:29 | 51.59768 | -0.64955 | 6453 ft | 236 kts | 250° |
| 2026-05-07 16:29 | 51.59251 | -0.67447 | 6145 ft | 235 kts | 252° |
| 2026-05-07 16:29 | 51.58782 | -0.69955 | 5837 ft | 234 kts | 257° |
| 2026-05-07 16:29 | 51.58689 | -0.72558 | 5544 ft | 233 kts | 270° |
| 2026-05-07 16:30 | 51.58725 | -0.75124 | 5256 ft | 232 kts | 271° |
| 2026-05-07 16:30 | 51.58776 | -0.77709 | 4962 ft | 231 kts | 271° |
| 2026-05-07 16:30 | 51.58829 | -0.80283 | 4657 ft | 230 kts | 270° |
| 2026-05-07 16:30 | 51.58546 | -0.82736 | 4462 ft | 220 kts | 242° |
| 2026-05-07 16:31 | 51.57524 | -0.84407 | 4339 ft | 207 kts | 206° |
| 2026-05-07 16:31 | 51.56160 | -0.84886 | 4205 ft | 197 kts | 184° |
| 2026-05-07 16:31 | 51.54820 | -0.84960 | 4091 ft | 190 kts | 181° |
| 2026-05-07 16:31 | 51.53502 | -0.84993 | 4004 ft | 189 kts | 181° |
| 2026-05-07 16:32 | 51.52194 | -0.85022 | 4002 ft | 188 kts | 181° |
| 2026-05-07 16:32 | 51.50927 | -0.85035 | 3993 ft | 178 kts | 178° |
| 2026-05-07 16:32 | 51.49749 | -0.84347 | 4029 ft | 187 kts | 139° |
| 2026-05-07 16:32 | 51.48952 | -0.82730 | 3854 ft | 186 kts | 123° |
| 2026-05-07 16:33 | 51.48278 | -0.80946 | 3458 ft | 188 kts | 121° |
| 2026-05-07 16:33 | 51.47697 | -0.79074 | 3096 ft | 189 kts | 107° |
| 2026-05-07 16:33 | 51.47600 | -0.76990 | 3008 ft | 189 kts | 90° |
| 2026-05-07 16:33 | 51.47613 | -0.74909 | 3004 ft | 189 kts | 91° |
| 2026-05-07 16:34 | 51.47625 | -0.72795 | 2984 ft | 190 kts | 90° |
| 2026-05-07 16:34 | 51.47638 | -0.70681 | 2812 ft | 189 kts | 90° |
| 2026-05-07 16:34 | 51.47650 | -0.68571 | 2589 ft | 189 kts | 91° |
| 2026-05-07 16:34 | 51.47662 | -0.66467 | 2328 ft | 188 kts | 91° |
| 2026-05-07 16:35 | 51.47673 | -0.64369 | 2078 ft | 188 kts | 91° |
| 2026-05-07 16:35 | 51.47684 | -0.62282 | 1829 ft | 186 kts | 90° |
| 2026-05-07 16:35 | 51.47695 | -0.60214 | 1572 ft | 186 kts | 90° |
| 2026-05-07 16:35 | 51.47706 | -0.58160 | 1321 ft | 178 kts | 91° |
| 2026-05-07 16:36 | 51.47715 | -0.56246 | 1092 ft | 166 kts | 91° |
| 2026-05-07 16:36 | 51.47724 | -0.54468 | 874 ft | 153 kts | 91° |
| 2026-05-07 16:36 | 51.47731 | -0.52888 | 672 ft | 133 kts | 91° |
| 2026-05-07 16:36 | 51.47737 | -0.51458 | 496 ft | 125 kts | 91° |
| 2026-05-07 16:37 | 51.47742 | -0.50102 | 333 ft | 120 kts | 91° |
| 2026-05-07 16:37 | 51.47747 | -0.48773 | 178 ft | 119 kts | 92° |
| 2026-05-07 16:37 | 51.47751 | -0.47489 | 85 ft | 106 kts | 90° |
| 2026-05-07 16:37 | 51.47755 | -0.46539 | 92 ft | 71 kts | 89° |
| 2026-05-07 16:38 | 51.47725 | -0.46180 | 87 ft | 17 kts | 130° |
| 2026-05-07 16:38 | 51.47667 | -0.46100 | 88 ft | 6 kts | 144° |
| 2026-05-07 16:38 | 51.47652 | -0.46085 | 89 ft | 6 kts | 150° |
| 2026-05-07 16:38 | 51.47596 | -0.46132 | 89 ft | 14 kts | 253° |
| 2026-05-07 16:39 | 51.47595 | -0.46303 | 89 ft | 17 kts | 270° |
| 2026-05-07 16:39 | 51.47594 | -0.46511 | 87 ft | 20 kts | 270° |
| 2026-05-07 16:39 | 51.47592 | -0.46751 | 86 ft | 23 kts | 269° |
| 2026-05-07 16:39 | 51.47584 | -0.47012 | 86 ft | 25 kts | 270° |
| 2026-05-07 16:40 | 51.47581 | -0.47310 | 88 ft | 28 kts | 269° |
| 2026-05-07 16:40 | 51.47579 | -0.47621 | 86 ft | 27 kts | 270° |
| 2026-05-07 16:40 | 51.47578 | -0.47922 | 86 ft | 25 kts | 269° |
| 2026-05-07 16:40 | 51.47578 | -0.48200 | 86 ft | 18 kts | 270° |
| 2026-05-07 16:41 | 51.47578 | -0.48383 | 86 ft | 15 kts | 269° |
| 2026-05-07 16:41 | 51.47519 | -0.48481 | 88 ft | 13 kts | 200° |
| 2026-05-07 16:41 | 51.47489 | -0.48599 | 88 ft | 12 kts | 269° |
| 2026-05-07 16:41 | 51.47489 | -0.48728 | 86 ft | 11 kts | 269° |
| 2026-05-07 16:42 | 51.47468 | -0.48760 | 88 ft | 3 kts | 179° |
| 2026-05-07 16:42 | 51.47444 | -0.48758 | 86 ft | 4 kts | 177° |
| 2026-05-07 16:42 | 51.47412 | -0.48757 | 86 ft | 4 kts | 180° |
| 2026-05-07 16:42 | 51.47398 | -0.48757 | 86 ft | 0 kts | 180° |